Time;durP1;ratioP1;P1;durP2;ratioP2;P2;SDS_P1;SDS_P2;PMS_P1;PMS_P2;Temp;Humidity;BMP_temperature;BMP_pressure;BME280_temperature;BME280_humidity;BME280_pressure;Samples;Min_cycle;Max_cycle;Signal;HPM_P1;HPM_P2
2022/08/30 00:01:24;;;;;;;6.50;4.72;;;20.20;91.70;;;;;;5011551;28;20310;-62
2022/08/30 00:03:53;;;;;;;7.25;4.82;;;20.30;91.80;;;;;;5029649;28;20475;-62
2022/08/30 00:06:20;;;;;;;9.05;5.82;;;20.30;91.80;;;;;;5027398;28;20032;-62
2022/08/30 00:08:47;;;;;;;7.00;4.97;;;20.20;91.70;;;;;;5029516;28;20029;-62
2022/08/30 00:11:20;;;;;;;7.57;5.50;;;20.20;91.80;;;;;;5028792;28;20088;-62
2022/08/30 00:13:49;;;;;;;8.45;5.97;;;20.30;91.80;;;;;;5029408;28;20025;-62
2022/08/30 00:16:16;;;;;;;11.75;6.05;;;20.20;91.80;;;;;;5028526;28;20126;-62
2022/08/30 00:18:42;;;;;;;12.30;5.78;;;20.30;91.80;;;;;;5029813;28;20028;-64
2022/08/30 00:21:09;;;;;;;11.48;5.40;;;20.20;91.80;;;;;;5010144;28;20131;-62
2022/08/30 00:23:35;;;;;;;10.82;5.38;;;20.30;91.80;;;;;;5029360;28;20018;-63
2022/08/30 00:26:01;;;;;;;8.38;5.70;;;20.20;91.80;;;;;;5028446;28;20091;-62
2022/08/30 00:28:27;;;;;;;13.57;6.15;;;20.20;91.80;;;;;;5028654;28;20036;-62
2022/08/30 00:30:53;;;;;;;12.15;5.75;;;20.30;91.80;;;;;;5011711;28;20321;-62
2022/08/30 00:33:20;;;;;;;11.27;6.03;;;20.20;91.80;;;;;;5029221;28;20030;-62
2022/08/30 00:35:45;;;;;;;10.40;5.35;;;20.20;91.80;;;;;;5027475;28;20378;-62
2022/08/30 00:38:12;;;;;;;12.38;5.97;;;20.20;91.80;;;;;;5028890;28;20455;-62
2022/08/30 00:40:40;;;;;;;9.27;5.22;;;20.20;91.90;;;;;;5029448;28;20049;-62
2022/08/30 00:43:10;;;;;;;9.75;5.07;;;20.20;91.80;;;;;;5028976;28;20041;-62
2022/08/30 00:45:36;;;;;;;13.70;4.93;;;20.20;91.90;;;;;;5012539;28;20060;-62
2022/08/30 00:48:02;;;;;;;8.98;5.32;;;20.20;91.90;;;;;;5032711;28;20040;-62
2022/08/30 00:50:33;;;;;;;8.75;5.38;;;20.20;91.90;;;;;;5031404;28;20112;-62
2022/08/30 00:53:02;;;;;;;9.95;5.32;;;20.20;91.90;;;;;;5033197;28;20025;-62
2022/08/30 00:55:28;;;;;;;9.77;5.53;;;20.20;91.90;;;;;;5014320;28;20053;-62
2022/08/30 00:58:00;;;;;;;10.68;5.85;;;20.20;91.90;;;;;;5032466;28;20101;-62
2022/08/30 01:00:26;;;;;;;12.02;5.18;;;20.20;91.90;;;;;;5032901;28;20128;-62
2022/08/30 01:02:52;;;;;;;11.48;5.97;;;20.20;91.90;;;;;;5033239;28;20424;-62
2022/08/30 01:05:18;;;;;;;8.80;5.78;;;20.20;91.90;;;;;;5030439;28;20364;-62
2022/08/30 01:07:44;;;;;;;12.63;5.05;;;20.20;91.90;;;;;;5031907;28;20026;-63
2022/08/30 01:10:12;;;;;;;7.80;5.35;;;20.20;91.90;;;;;;5032694;28;20018;-62
2022/08/30 01:12:38;;;;;;;12.68;5.45;;;20.20;91.90;;;;;;5015401;28;20010;-62
2022/08/30 01:15:06;;;;;;;7.50;5.22;;;20.20;92.00;;;;;;5032095;28;20036;-62
2022/08/30 01:17:33;;;;;;;16.98;5.75;;;20.10;91.90;;;;;;5014625;28;20021;-62
2022/08/30 01:20:05;;;;;;;13.18;6.75;;;20.10;91.90;;;;;;5032588;28;20021;-62
2022/08/30 01:22:42;;;;;;;16.33;6.53;;;20.10;91.90;;;;;;5032047;28;20123;-62
2022/08/30 01:25:09;;;;;;;14.45;6.72;;;20.10;91.90;;;;;;5031895;28;20051;-62
2022/08/30 01:27:43;;;;;;;10.02;6.55;;;20.10;91.90;;;;;;5031934;28;20699;-62
2022/08/30 01:30:09;;;;;;;14.00;6.68;;;20.10;91.90;;;;;;5031922;28;20029;-62
2022/08/30 01:32:44;;;;;;;21.02;6.63;;;20.10;91.90;;;;;;5031771;28;20065;-62
2022/08/30 01:35:12;;;;;;;9.80;6.25;;;20.10;92.00;;;;;;5012541;28;20664;-62
2022/08/30 01:37:39;;;;;;;12.70;5.72;;;20.10;92.00;;;;;;5031045;28;20033;-62
2022/08/30 01:40:06;;;;;;;12.70;5.88;;;20.10;92.00;;;;;;5031580;28;20026;-62
2022/08/30 01:42:31;;;;;;;7.75;5.28;;;20.10;92.00;;;;;;5032004;28;20151;-62
2022/08/30 01:44:57;;;;;;;9.13;5.80;;;20.10;92.00;;;;;;5030697;28;20116;-62
2022/08/30 01:47:23;;;;;;;9.73;5.70;;;20.10;92.00;;;;;;5013197;28;20022;-62
2022/08/30 01:49:49;;;;;;;8.23;5.95;;;20.10;92.00;;;;;;5031758;28;20022;-62
2022/08/30 01:52:16;;;;;;;11.18;6.25;;;20.10;92.00;;;;;;5030647;28;20079;-62
2022/08/30 01:54:44;;;;;;;12.95;6.18;;;20.10;92.00;;;;;;5031695;28;20032;-63
2022/08/30 01:57:12;;;;;;;12.93;6.32;;;20.10;92.00;;;;;;5030747;28;20125;-62
2022/08/30 01:59:42;;;;;;;14.95;6.45;;;20.10;92.00;;;;;;5030853;28;20025;-62
2022/08/30 02:02:09;;;;;;;12.70;6.45;;;20.10;92.10;;;;;;5031812;28;20041;-62
2022/08/30 02:04:35;;;;;;;12.48;6.40;;;20.10;92.10;;;;;;5013520;28;20029;-62
2022/08/30 02:07:02;;;;;;;7.60;5.40;;;20.10;92.00;;;;;;5029566;28;20021;-62
2022/08/30 02:09:27;;;;;;;9.80;5.72;;;20.00;92.00;;;;;;5013584;28;20030;-62
2022/08/30 02:11:53;;;;;;;8.10;5.57;;;20.00;92.00;;;;;;5013163;28;20025;-62
2022/08/30 02:14:19;;;;;;;8.07;5.22;;;20.10;92.40;;;;;;5013151;28;20040;-62
2022/08/30 02:16:45;;;;;;;10.55;5.55;;;20.00;92.00;;;;;;5030113;28;20013;-62
2022/08/30 02:19:10;;;;;;;8.13;5.32;;;20.00;92.00;;;;;;5031118;28;20021;-62
2022/08/30 02:21:36;;;;;;;7.72;5.10;;;20.00;92.00;;;;;;5029623;28;20132;-61
2022/08/30 02:24:02;;;;;;;9.25;5.63;;;20.00;92.00;;;;;;5024947;28;20039;-62
2022/08/30 02:26:28;;;;;;;7.53;5.40;;;20.00;92.10;;;;;;5030011;28;20483;-63
2022/08/30 02:28:53;;;;;;;10.20;5.63;;;20.00;92.00;;;;;;5030529;28;20079;-62
2022/08/30 02:31:20;;;;;;;8.90;5.80;;;20.00;92.00;;;;;;5031337;28;20932;-62
2022/08/30 02:33:47;;;;;;;16.90;6.03;;;20.00;92.10;;;;;;5030417;28;20426;-62
2022/08/30 02:36:13;;;;;;;13.80;6.10;;;20.00;92.00;;;;;;5029349;28;20494;-62
2022/08/30 02:38:38;;;;;;;7.32;5.15;;;20.00;92.10;;;;;;5030619;28;20030;-62
2022/08/30 02:41:04;;;;;;;7.90;5.47;;;20.00;92.10;;;;;;5030661;28;20022;-62
2022/08/30 02:43:30;;;;;;;8.50;5.38;;;20.00;92.10;;;;;;5030419;28;20028;-63
2022/08/30 02:45:56;;;;;;;9.77;6.07;;;20.00;92.10;;;;;;5029854;28;20433;-62
2022/08/30 02:48:22;;;;;;;12.18;5.20;;;20.00;92.10;;;;;;5030210;28;20537;-62
2022/08/30 02:50:50;;;;;;;10.32;5.57;;;20.00;92.10;;;;;;5029311;28;20037;-62
2022/08/30 02:53:17;;;;;;;16.55;6.40;;;20.00;92.10;;;;;;5030634;28;20037;-62
2022/08/30 02:55:43;;;;;;;11.10;5.88;;;19.90;92.10;;;;;;5029535;28;20034;-63
2022/08/30 02:58:09;;;;;;;9.13;5.38;;;20.00;92.10;;;;;;5030119;28;20060;-62
2022/08/30 03:00:36;;;;;;;15.05;6.75;;;19.90;92.10;;;;;;5012545;28;20479;-62
2022/08/30 03:03:02;;;;;;;12.02;6.30;;;20.00;92.10;;;;;;5030002;28;20033;-62
2022/08/30 03:05:29;;;;;;;10.85;6.10;;;20.00;92.10;;;;;;5029624;28;20048;-62
2022/08/30 03:07:55;;;;;;;17.17;5.80;;;19.90;92.10;;;;;;5028142;28;20040;-62
2022/08/30 03:10:21;;;;;;;9.05;5.10;;;19.90;92.10;;;;;;5029595;28;20033;-62
2022/08/30 03:12:47;;;;;;;11.48;5.63;;;19.90;92.10;;;;;;5012276;28;20029;-62
2022/08/30 03:15:14;;;;;;;9.35;5.75;;;19.90;92.10;;;;;;5029078;28;20056;-62
2022/08/30 03:17:40;;;;;;;8.82;5.50;;;19.90;92.10;;;;;;5030062;28;20076;-62
2022/08/30 03:20:07;;;;;;;12.68;5.70;;;19.90;92.10;;;;;;5012484;28;20018;-62
2022/08/30 03:22:34;;;;;;;9.77;6.03;;;19.90;92.10;;;;;;5028943;28;20029;-62
2022/08/30 03:25:00;;;;;;;12.55;5.85;;;19.90;92.10;;;;;;5011868;28;20022;-61
2022/08/30 03:27:27;;;;;;;12.05;5.60;;;19.90;92.10;;;;;;5011569;28;20158;-62
2022/08/30 03:29:53;;;;;;;11.98;6.50;;;19.90;92.10;;;;;;5029741;28;20030;-62
2022/08/30 03:32:19;;;;;;;9.98;6.38;;;19.90;92.10;;;;;;5028171;28;20029;-62
2022/08/30 03:34:44;;;;;;;10.07;6.03;;;19.90;92.10;;;;;;5028940;28;20032;-62
2022/08/30 03:37:10;;;;;;;10.35;5.57;;;19.90;92.10;;;;;;5010106;28;20072;-63
2022/08/30 03:39:36;;;;;;;12.52;6.25;;;19.90;92.10;;;;;;5029717;28;20037;-62
2022/08/30 03:42:02;;;;;;;9.82;5.60;;;19.90;92.10;;;;;;5029800;28;20111;-62
2022/08/30 03:44:27;;;;;;;8.50;5.25;;;19.90;92.10;;;;;;5029638;28;20025;-62
2022/08/30 03:46:53;;;;;;;9.50;5.63;;;19.90;92.10;;;;;;5029117;28;20033;-62
2022/08/30 03:49:19;;;;;;;14.20;5.85;;;19.90;92.20;;;;;;5012408;28;20026;-62
2022/08/30 03:51:47;;;;;;;14.73;6.95;;;19.90;92.20;;;;;;5028665;28;20037;-62
2022/08/30 03:54:13;;;;;;;15.23;6.25;;;19.90;92.20;;;;;;5029723;28;20053;-62
2022/08/30 03:56:40;;;;;;;15.50;6.15;;;19.90;92.20;;;;;;5029267;28;20036;-62
2022/08/30 03:59:05;;;;;;;11.00;5.68;;;19.80;92.10;;;;;;5029413;28;20487;-62
2022/08/30 04:01:31;;;;;;;9.77;5.78;;;19.80;92.20;;;;;;5029661;28;20049;-61
2022/08/30 04:03:57;;;;;;;12.35;6.35;;;19.80;92.20;;;;;;5029658;28;20025;-62
2022/08/30 04:06:23;;;;;;;11.82;6.03;;;19.90;92.20;;;;;;5010150;28;20394;-62
2022/08/30 04:08:49;;;;;;;7.63;5.10;;;19.90;92.20;;;;;;5029925;28;20044;-62
2022/08/30 04:11:15;;;;;;;14.38;7.28;;;19.80;92.10;;;;;;5029910;28;20018;-62
2022/08/30 04:13:41;;;;;;;11.48;6.68;;;19.80;92.10;;;;;;5029434;28;20032;-62
2022/08/30 04:16:07;;;;;;;11.07;5.53;;;19.80;92.20;;;;;;5028844;28;20064;-62
2022/08/30 04:18:34;;;;;;;13.82;6.63;;;19.80;92.20;;;;;;5029814;28;20401;-62
2022/08/30 04:21:01;;;;;;;12.90;6.20;;;19.80;92.20;;;;;;5032127;28;20032;-62
2022/08/30 04:23:27;;;;;;;8.68;5.15;;;19.80;92.20;;;;;;5032635;28;20517;-62
2022/08/30 04:25:54;;;;;;;12.10;5.78;;;19.80;92.20;;;;;;5032681;28;20513;-62
2022/08/30 04:28:20;;;;;;;11.85;5.93;;;19.80;92.20;;;;;;5033080;28;20035;-62
2022/08/30 04:30:46;;;;;;;10.88;5.97;;;19.80;92.20;;;;;;5033315;28;20033;-63
2022/08/30 04:33:13;;;;;;;8.80;5.75;;;19.80;92.20;;;;;;5033490;28;20025;-62
2022/08/30 04:35:43;;;;;;;9.73;5.88;;;19.80;92.20;;;;;;5031796;28;20018;-62
2022/08/30 04:38:09;;;;;;;;;;;19.80;92.20;;;;;;5009182;28;20021;-62
2022/08/30 04:40:35;;;;;;;14.40;6.55;;;19.80;92.20;;;;;;5032800;28;19912;-63
2022/08/30 04:43:02;;;;;;;13.27;5.65;;;19.80;92.20;;;;;;5033186;28;20033;-62
2022/08/30 04:45:27;;;;;;;9.82;5.97;;;19.80;92.20;;;;;;5032221;28;20156;-62
2022/08/30 04:47:53;;;;;;;10.43;5.20;;;19.80;92.20;;;;;;5032794;28;20104;-62
2022/08/30 04:50:20;;;;;;;7.60;5.30;;;19.80;92.20;;;;;;5032625;28;20036;-62
2022/08/30 04:52:46;;;;;;;8.68;5.30;;;19.80;92.20;;;;;;5031979;28;20026;-62
2022/08/30 04:55:13;;;;;;;9.65;5.80;;;19.80;92.20;;;;;;5032284;28;20075;-62
2022/08/30 04:57:39;;;;;;;8.63;5.57;;;19.70;92.10;;;;;;5032282;28;20536;-62
2022/08/30 05:00:10;;;;;;;11.07;6.20;;;19.80;92.20;;;;;;5032354;28;20498;-62
2022/08/30 05:02:36;;;;;;;14.93;6.97;;;19.70;92.50;;;;;;5015064;28;20136;-62
2022/08/30 05:07:46;;;;;;;13.90;6.43;;;19.70;92.10;;;;;;5031702;28;20454;-62
2022/08/30 05:10:12;;;;;;;14.52;6.65;;;19.80;92.20;;;;;;5032474;28;20492;-62
2022/08/30 05:12:38;;;;;;;10.23;5.90;;;19.70;92.10;;;;;;5014549;28;20063;-62
2022/08/30 05:15:04;;;;;;;11.70;6.30;;;19.70;92.10;;;;;;5031569;28;20506;-63
2022/08/30 05:17:30;;;;;;;14.45;6.38;;;19.70;92.10;;;;;;5031659;28;20391;-63
2022/08/30 05:19:55;;;;;;;10.27;6.10;;;19.80;92.20;;;;;;5014028;28;20025;-63
2022/08/30 05:22:21;;;;;;;8.60;5.70;;;19.80;92.20;;;;;;5030951;28;20116;-63
2022/08/30 05:24:48;;;;;;;10.07;6.05;;;19.70;92.10;;;;;;5031252;28;20024;-62
2022/08/30 05:27:14;;;;;;;10.25;5.13;;;19.70;92.10;;;;;;5014864;28;20287;-62
2022/08/30 05:29:40;;;;;;;10.68;6.25;;;19.80;92.20;;;;;;5032583;28;20084;-62
2022/08/30 05:32:07;;;;;;;14.27;5.97;;;19.80;92.10;;;;;;5031448;28;20026;-62
2022/08/30 05:34:33;;;;;;;10.45;6.10;;;19.70;92.10;;;;;;5032430;28;20023;-62
2022/08/30 05:37:01;;;;;;;10.82;5.65;;;19.80;92.50;;;;;;5030399;28;20112;-63
2022/08/30 05:39:27;;;;;;;16.85;5.60;;;19.80;92.10;;;;;;5031752;28;20033;-62
2022/08/30 05:41:56;;;;;;;13.35;6.20;;;19.80;92.10;;;;;;5030694;28;20128;-62
2022/08/30 05:44:22;;;;;;;7.47;5.55;;;19.80;92.10;;;;;;5032171;28;20018;-63
2022/08/30 05:46:48;;;;;;;9.25;6.22;;;19.80;92.10;;;;;;5030793;28;20288;-62
2022/08/30 05:49:14;;;;;;;10.05;5.68;;;19.80;92.10;;;;;;5031773;28;20026;-62
2022/08/30 05:51:40;;;;;;;11.32;5.40;;;19.80;92.00;;;;;;5031282;28;20384;-62
2022/08/30 05:54:14;;;;;;;9.88;6.22;;;19.90;92.00;;;;;;5012943;28;20080;-62
2022/08/30 05:56:44;;;;;;;13.65;6.32;;;19.90;91.90;;;;;;5011433;28;20386;-62
2022/08/30 05:59:10;;;;;;;12.03;6.90;;;19.90;91.90;;;;;;5013883;28;20048;-62
2022/08/30 06:01:40;;;;;;;12.55;5.80;;;19.90;91.90;;;;;;5031111;28;20025;-62
2022/08/30 06:04:08;;;;;;;12.98;6.22;;;19.90;91.80;;;;;;5030710;28;20510;-62
2022/08/30 06:06:36;;;;;;;14.65;6.18;;;19.90;91.80;;;;;;5030784;28;20048;-62
2022/08/30 06:09:03;;;;;;;15.70;6.00;;;20.00;91.80;;;;;;5030179;28;20033;-62
2022/08/30 06:11:29;;;;;;;11.35;6.20;;;20.00;91.80;;;;;;5031942;28;20009;-62
2022/08/30 06:13:54;;;;;;;16.05;6.50;;;20.00;91.80;;;;;;5032552;28;20032;-63
2022/08/30 06:16:23;;;;;;;10.68;6.47;;;20.10;91.80;;;;;;5014306;28;20113;-62
2022/08/30 06:18:49;;;;;;;9.30;5.72;;;20.10;92.10;;;;;;5033186;28;20047;-62
2022/08/30 06:21:27;;;;;;;16.38;6.40;;;20.10;91.70;;;;;;5033006;28;20021;-63
2022/08/30 06:24:03;;;;;;;12.10;6.90;;;20.20;91.80;;;;;;5034296;28;20053;-63
2022/08/30 06:26:29;;;;;;;10.65;6.80;;;20.20;91.70;;;;;;5033348;28;20251;-62
2022/08/30 06:29:03;;;;;;;9.88;6.07;;;20.20;92.00;;;;;;5031817;28;20064;-62
2022/08/30 06:31:28;;;;;;;18.63;6.68;;;20.30;91.70;;;;;;5016363;28;20022;-63
2022/08/30 06:33:54;;;;;;;10.10;6.30;;;20.30;91.70;;;;;;5031682;28;20030;-63
2022/08/30 06:36:23;;;;;;;16.23;6.55;;;20.40;91.60;;;;;;5030863;28;20021;-62
2022/08/30 06:38:51;;;;;;;15.35;6.68;;;20.40;91.60;;;;;;5030115;28;20086;-62
2022/08/30 06:41:20;;;;;;;13.48;6.32;;;20.50;91.60;;;;;;5030755;28;20028;-62
2022/08/30 06:43:46;;;;;;;11.35;5.90;;;20.60;91.60;;;;;;5030048;28;20538;-62
2022/08/30 06:46:16;;;;;;;22.00;7.10;;;20.60;91.50;;;;;;5030261;28;20120;-63
2022/08/30 06:48:42;;;;;;;13.82;6.78;;;20.70;91.50;;;;;;5013475;28;20018;-63
2022/08/30 06:51:08;;;;;;;9.45;6.45;;;20.70;91.50;;;;;;5030962;28;20387;-63
2022/08/30 06:53:34;;;;;;;18.35;7.18;;;20.70;91.40;;;;;;5029464;28;20032;-62
2022/08/30 06:56:03;;;;;;;15.23;7.10;;;20.80;91.40;;;;;;5030079;28;20029;-62
2022/08/30 06:58:30;;;;;;;18.33;7.60;;;20.90;91.30;;;;;;5012948;28;20060;-62
2022/08/30 07:00:58;;;;;;;11.98;6.88;;;20.90;91.30;;;;;;5012781;28;20501;-63
2022/08/30 07:03:26;;;;;;;11.60;7.63;;;21.00;91.20;;;;;;5030644;28;20044;-62
2022/08/30 07:05:53;;;;;;;17.55;7.28;;;21.00;91.10;;;;;;5028959;28;20021;-64
2022/08/30 07:08:19;;;;;;;11.27;6.82;;;21.00;91.10;;;;;;5027903;28;20435;-64
2022/08/30 07:10:45;;;;;;;11.68;7.78;;;21.10;91.00;;;;;;5030679;28;20159;-65
2022/08/30 07:13:11;;;;;;;16.23;7.50;;;21.10;90.90;;;;;;5030583;28;20029;-65
2022/08/30 07:15:41;;;;;;;11.10;7.22;;;21.20;90.90;;;;;;5029866;28;20400;-63
2022/08/30 07:20:51;;;;;;;13.30;7.18;;;21.30;90.80;;;;;;5030132;28;20496;-64
2022/08/30 07:23:16;;;;;;;12.02;6.85;;;21.30;90.70;;;;;;5029193;28;20256;-64
2022/08/30 07:25:42;;;;;;;17.15;7.22;;;21.30;90.60;;;;;;5028904;28;20052;-66
2022/08/30 07:28:08;;;;;;;20.42;7.28;;;21.40;90.50;;;;;;5029597;28;20033;-64
2022/08/30 07:30:35;;;;;;;16.90;7.75;;;21.40;90.40;;;;;;5030067;28;20040;-64
2022/08/30 07:33:01;;;;;;;17.00;8.02;;;21.40;90.40;;;;;;5029620;28;20540;-64
2022/08/30 07:35:31;;;;;;;11.43;7.53;;;21.50;90.30;;;;;;5029321;28;20021;-64
2022/08/30 07:37:57;;;;;;;13.70;7.63;;;21.50;90.20;;;;;;5029919;28;20049;-64
2022/08/30 07:40:23;;;;;;;13.35;7.53;;;21.60;90.20;;;;;;5029034;28;20038;-64
2022/08/30 07:42:48;;;;;;;12.48;7.60;;;21.60;90.10;;;;;;5029983;28;20022;-64
2022/08/30 07:45:14;;;;;;;13.27;7.32;;;21.60;90.10;;;;;;5028491;28;20537;-64
2022/08/30 07:47:41;;;;;;;13.32;7.82;;;21.70;90.00;;;;;;5030743;28;20101;-66
2022/08/30 07:50:07;;;;;;;17.42;7.30;;;21.80;89.90;;;;;;5030869;28;20075;-66
2022/08/30 07:52:34;;;;;;;14.82;7.70;;;21.80;89.80;;;;;;5030891;28;20026;-66
2022/08/30 07:55:00;;;;;;;18.70;8.38;;;21.90;89.80;;;;;;5028951;28;20029;-66
2022/08/30 07:57:26;;;;;;;18.85;9.45;;;21.90;89.70;;;;;;5030785;28;20021;-66
2022/08/30 07:59:52;;;;;;;12.25;7.60;;;21.90;89.50;;;;;;5030643;28;20022;-66
2022/08/30 08:02:18;;;;;;;14.32;8.05;;;22.00;89.30;;;;;;5029948;28;20052;-66
2022/08/30 08:04:45;;;;;;;13.00;6.85;;;22.00;89.20;;;;;;5012091;28;20029;-66
2022/08/30 08:07:10;;;;;;;15.68;7.07;;;22.00;89.10;;;;;;5011753;28;20439;-67
2022/08/30 08:09:37;;;;;;;17.25;8.43;;;22.10;89.20;;;;;;5028588;28;20109;-66
2022/08/30 08:12:04;;;;;;;10.63;7.05;;;22.10;89.20;;;;;;5029501;28;20375;-66
2022/08/30 08:14:30;;;;;;;15.18;7.38;;;22.10;89.00;;;;;;5029837;28;20048;-66
2022/08/30 08:16:56;;;;;;;15.25;6.75;;;22.20;89.10;;;;;;5028842;28;20018;-66
2022/08/30 08:19:22;;;;;;;16.08;7.28;;;22.20;89.00;;;;;;5029689;28;20022;-66
2022/08/30 08:21:48;;;;;;;12.48;7.88;;;22.30;89.00;;;;;;5029828;28;20411;-66
2022/08/30 08:24:13;;;;;;;13.35;7.20;;;22.30;88.90;;;;;;5010954;28;20411;-66
2022/08/30 08:26:39;;;;;;;18.63;8.70;;;22.30;88.90;;;;;;5029131;28;20028;-66
2022/08/30 08:29:07;;;;;;;13.00;7.90;;;22.40;88.90;;;;;;5029571;28;20033;-66
2022/08/30 08:31:33;;;;;;;13.95;8.07;;;22.40;89.00;;;;;;5029802;28;20387;-66
2022/08/30 08:33:59;;;;;;;11.63;6.95;;;22.40;88.90;;;;;;5029777;28;20035;-66
2022/08/30 08:36:26;;;;;;;15.75;7.32;;;22.40;88.90;;;;;;5011378;28;20083;-66
2022/08/30 08:38:52;;;;;;;12.20;7.80;;;22.40;88.90;;;;;;5010407;28;20021;-66
2022/08/30 08:41:17;;;;;;;15.18;7.50;;;22.50;88.80;;;;;;5029552;28;20071;-66
2022/08/30 08:43:43;;;;;;;24.27;7.40;;;22.50;88.70;;;;;;5029610;28;20053;-66
2022/08/30 08:46:17;;;;;;;12.25;7.75;;;22.50;88.70;;;;;;5028984;28;20509;-66
2022/08/30 08:48:49;;;;;;;11.82;7.50;;;22.50;88.60;;;;;;5011868;28;20030;-67
2022/08/30 08:54:10;;;;;;;15.30;7.30;;;22.60;88.40;;;;;;5023536;28;20403;-66
2022/08/30 08:56:36;;;;;;;12.65;6.53;;;22.60;88.30;;;;;;5029082;28;20156;-66
2022/08/30 08:59:05;;;;;;;11.80;7.25;;;22.60;88.30;;;;;;5029106;28;20025;-66
2022/08/30 09:01:32;;;;;;;10.10;6.47;;;22.70;88.20;;;;;;5011020;28;20314;-67
2022/08/30 09:04:01;;;;;;;13.35;6.00;;;22.60;88.10;;;;;;5029595;28;20052;-66
2022/08/30 09:06:33;;;;;;;10.60;6.60;;;22.70;88.20;;;;;;5028631;28;20044;-66
2022/08/30 09:09:02;;;;;;;11.13;6.10;;;22.70;88.10;;;;;;5032480;28;20022;-66
2022/08/30 09:11:31;;;;;;;10.35;5.90;;;22.70;88.00;;;;;;5032783;28;20057;-67
2022/08/30 09:13:57;;;;;;;11.23;6.67;;;22.70;88.00;;;;;;5032777;28;20060;-66
2022/08/30 09:16:45;;;;;;;9.23;5.88;;;22.70;88.00;;;;;;4997900;28;20034;-66
2022/08/30 09:19:11;;;;;;;8.52;6.18;;;22.70;88.00;;;;;;5033341;28;20021;-66
2022/08/30 09:21:37;;;;;;;10.27;6.03;;;22.70;87.90;;;;;;5032363;28;20057;-66
2022/08/30 09:24:04;;;;;;;9.80;5.65;;;22.80;87.90;;;;;;5033262;28;20053;-66
2022/08/30 09:26:35;;;;;;;18.63;6.07;;;22.70;87.80;;;;;;5013557;28;20030;-66
2022/08/30 09:29:03;;;;;;;14.88;6.32;;;22.70;87.80;;;;;;5032582;28;20033;-67
2022/08/30 09:31:32;;;;;;;9.88;6.03;;;22.70;87.80;;;;;;5032651;28;20026;-66
2022/08/30 09:34:02;;;;;;;19.38;7.00;;;22.80;87.90;;;;;;5032776;28;20033;-66
2022/08/30 09:36:42;;;;;;;11.43;6.13;;;22.70;87.80;;;;;;5031571;28;20029;-66
2022/08/30 09:39:14;;;;;;;8.48;5.78;;;22.70;87.80;;;;;;5032661;28;20105;-67
2022/08/30 09:41:43;;;;;;;12.57;6.28;;;22.70;87.90;;;;;;5031439;28;20041;-66
2022/08/30 09:44:30;;;;;;;10.48;6.18;;;22.70;87.80;;;;;;5014499;28;20021;-67
2022/08/30 09:46:58;;;;;;;15.75;5.75;;;22.70;87.90;;;;;;5024069;28;20028;-66
2022/08/30 09:49:27;;;;;;;17.10;7.30;;;22.60;87.90;;;;;;5032209;28;20410;-66
2022/08/30 09:52:12;;;;;;;12.27;5.67;;;22.60;88.00;;;;;;5032490;28;20077;-66
2022/08/30 09:58:12;;;;;;;12.77;6.85;;;22.60;88.10;;;;;;5116764;23;20075;-69
2022/08/30 10:00:51;;;;;;;9.63;5.95;;;22.60;88.20;;;;;;5080032;28;20032;-70
2022/08/30 10:03:35;;;;;;;11.18;6.50;;;22.60;88.30;;;;;;5080261;28;20496;-69
2022/08/30 10:06:23;;;;;;;13.27;6.03;;;22.50;88.30;;;;;;5078777;28;20031;-69
2022/08/30 10:09:02;;;;;;;11.98;7.45;;;22.50;88.40;;;;;;5082976;28;20016;-69
2022/08/30 10:11:47;;;;;;;11.55;6.55;;;22.50;88.50;;;;;;5083184;28;20105;-69
2022/08/30 10:14:28;;;;;;;14.50;7.15;;;22.50;88.60;;;;;;5061896;28;20187;-69
2022/08/30 10:17:06;;;;;;;10.20;6.57;;;22.40;88.70;;;;;;5040310;28;20071;-69
2022/08/30 10:20:14;;;;;;;10.95;7.32;;;22.40;88.80;;;;;;5063780;28;20032;-70
2022/08/30 10:22:45;;;;;;;21.63;6.20;;;22.40;88.80;;;;;;5081247;28;20116;-69
2022/08/30 10:25:20;;;;;;;9.13;5.95;;;22.40;88.90;;;;;;5077859;28;20078;-69
2022/08/30 10:27:50;;;;;;;13.13;6.60;;;22.40;88.90;;;;;;5079043;28;20025;-70
2022/08/30 10:30:17;;;;;;;9.25;5.72;;;22.30;88.90;;;;;;5079367;28;20095;-69
2022/08/30 10:32:57;;;;;;;8.90;5.15;;;22.30;89.10;;;;;;5079600;28;20058;-69
2022/08/30 10:35:27;;;;;;;7.18;5.50;;;22.30;89.10;;;;;;5078881;28;20082;-69
2022/08/30 10:38:02;;;;;;;10.23;5.72;;;22.30;89.30;;;;;;5082582;28;20028;-69
2022/08/30 10:43:32;;;;;;;8.05;5.68;;;22.20;89.30;;;;;;5074081;28;20389;-69
2022/08/30 10:46:04;;;;;;;17.65;6.38;;;22.20;89.40;;;;;;5070093;28;20059;-69
2022/08/30 10:48:35;;;;;;;9.25;5.85;;;22.20;89.50;;;;;;5079121;28;20056;-69
2022/08/30 10:51:13;;;;;;;8.23;5.45;;;22.20;89.70;;;;;;5053248;28;20123;-69
2022/08/30 10:53:56;;;;;;;13.82;6.07;;;22.20;89.80;;;;;;5079735;28;20496;-69
2022/08/30 10:56:25;;;;;;;7.93;5.55;;;22.10;89.70;;;;;;5080173;28;20469;-69
2022/08/30 10:58:53;;;;;;;10.67;6.03;;;22.10;89.80;;;;;;5079918;28;20049;-69
2022/08/30 11:01:28;;;;;;;9.82;5.45;;;22.10;89.90;;;;;;5078363;28;20021;-69
2022/08/30 11:04:12;;;;;;;7.18;5.13;;;22.10;90.00;;;;;;5080796;28;20528;-69
2022/08/30 11:06:56;;;;;;;11.27;5.65;;;22.10;90.00;;;;;;5063038;28;20031;-69
2022/08/30 11:09:45;;;;;;;8.88;5.22;;;22.10;90.10;;;;;;5059215;28;20739;-69
2022/08/30 11:12:30;;;;;;;7.17;4.43;;;22.10;90.00;;;;;;5073866;28;20067;-69
2022/08/30 11:14:56;;;;;;;14.65;5.93;;;22.00;90.00;;;;;;5080910;28;20028;-69
2022/08/30 11:17:30;;;;;;;10.20;5.78;;;22.00;90.00;;;;;;5084212;28;20051;-69
2022/08/30 11:19:59;;;;;;;8.65;5.35;;;22.00;90.10;;;;;;5078541;28;20045;-70
2022/08/30 11:22:32;;;;;;;9.02;5.38;;;22.00;90.00;;;;;;5076912;28;20042;-69
2022/08/30 11:25:12;;;;;;;11.25;6.10;;;22.00;90.10;;;;;;5078459;28;20500;-69
2022/08/30 11:27:46;;;;;;;9.65;5.65;;;22.00;90.10;;;;;;5075909;28;20516;-70
2022/08/30 11:30:24;;;;;;;8.40;4.65;;;21.90;90.10;;;;;;5082060;28;20008;-69
2022/08/30 11:33:01;;;;;;;7.38;4.97;;;21.90;90.10;;;;;;5079960;28;20501;-69
2022/08/30 11:35:41;;;;;;;6.38;4.88;;;21.90;90.10;;;;;;5084981;28;20016;-69
2022/08/30 11:38:24;;;;;;;7.88;5.43;;;21.90;90.10;;;;;;5052235;28;20021;-69
2022/08/30 11:41:27;;;;;;;8.05;4.82;;;21.90;90.20;;;;;;5076995;28;20083;-69
2022/08/30 11:43:54;;;;;;;8.82;5.28;;;21.90;90.20;;;;;;5079520;28;20060;-69
2022/08/30 11:46:34;;;;;;;7.13;4.45;;;21.90;90.20;;;;;;5077893;28;20080;-69
2022/08/30 11:49:15;;;;;;;;;;;21.90;90.20;;;;;;5078459;28;20056;-70
2022/08/30 11:51:52;;;;;;;6.95;4.43;;;21.90;90.20;;;;;;5078200;28;20292;-70
2022/08/30 11:54:43;;;;;;;7.85;4.43;;;21.90;90.20;;;;;;5063603;28;20094;-69
2022/08/30 11:57:30;;;;;;;6.63;4.50;;;21.90;90.20;;;;;;5046784;28;20111;-69
2022/08/30 12:00:11;;;;;;;7.07;4.30;;;21.90;90.20;;;;;;5078867;28;20057;-69
2022/08/30 12:02:48;;;;;;;6.03;4.65;;;21.90;90.20;;;;;;5078184;28;20035;-69
2022/08/30 12:05:39;;;;;;;6.38;4.88;;;21.90;90.20;;;;;;5052160;28;20485;-69
2022/08/30 12:08:19;;;;;;;8.88;4.90;;;21.90;90.20;;;;;;5081003;28;20021;-69
2022/08/30 12:10:48;;;;;;;8.65;5.78;;;21.80;90.20;;;;;;5080504;28;20016;-69
2022/08/30 12:13:35;;;;;;;7.60;4.33;;;21.90;90.10;;;;;;5077509;28;20071;-69
2022/08/30 12:16:11;;;;;;;8.80;5.18;;;21.90;90.10;;;;;;5079676;28;20330;-69
2022/08/30 12:18:58;;;;;;;6.88;4.75;;;21.90;90.10;;;;;;5081435;28;20020;-69
2022/08/30 12:21:31;;;;;;;7.38;4.85;;;21.90;90.20;;;;;;5071707;28;20052;-69
2022/08/30 12:24:06;;;;;;;8.82;4.63;;;21.90;90.20;;;;;;5077996;28;20476;-69
2022/08/30 12:26:43;;;;;;;8.93;4.70;;;21.80;90.10;;;;;;5076104;28;20504;-69
2022/08/30 12:29:14;;;;;;;7.38;4.68;;;21.80;90.10;;;;;;5081109;28;20373;-69
2022/08/30 12:31:47;;;;;;;5.70;4.40;;;21.80;90.10;;;;;;5081182;28;20070;-69
2022/08/30 12:34:24;;;;;;;8.73;4.82;;;21.80;90.10;;;;;;5069896;28;20143;-69
2022/08/30 12:37:21;;;;;;;10.45;4.57;;;21.80;90.10;;;;;;5077754;28;20013;-69
2022/08/30 12:39:48;;;;;;;11.07;5.15;;;21.80;90.10;;;;;;5081153;28;20020;-69
2022/08/30 12:42:18;;;;;;;8.30;4.88;;;21.80;90.10;;;;;;5066150;28;20036;-69
2022/08/30 12:44:46;;;;;;;7.15;4.70;;;21.80;90.10;;;;;;5081246;28;20040;-69
2022/08/30 12:47:16;;;;;;;5.78;4.55;;;21.80;90.10;;;;;;5084298;28;20057;-68
2022/08/30 12:49:45;;;;;;;6.28;3.95;;;21.90;90.10;;;;;;5085179;28;20543;-71
2022/08/30 12:52:25;;;;;;;18.05;5.32;;;21.90;90.10;;;;;;5084573;28;20373;-69
2022/08/30 12:54:54;;;;;;;13.27;4.47;;;21.90;90.10;;;;;;5084464;28;20020;-69
2022/08/30 12:57:40;;;;;;;11.27;5.43;;;21.90;90.00;;;;;;5077857;28;20071;-69
2022/08/30 13:00:22;;;;;;;8.82;5.47;;;21.90;90.10;;;;;;5064358;28;20434;-69
2022/08/30 13:02:53;;;;;;;7.78;5.22;;;21.90;90.00;;;;;;5080615;28;20047;-69
2022/08/30 13:05:33;;;;;;;11.00;4.78;;;21.90;90.00;;;;;;5072902;28;20024;-69
2022/08/30 13:08:20;;;;;;;8.70;5.20;;;21.90;90.00;;;;;;5081890;28;20052;-69